createdAt,value
2019-05-06T00:00:59.088Z,-0.20
2019-05-06T00:03:45.705Z,-0.20
2019-05-06T00:06:34.578Z,-0.20
2019-05-06T00:09:24.074Z,0.00
2019-05-06T00:12:12.039Z,0.00
2019-05-06T00:15:03.962Z,0.00
2019-05-06T00:17:53.864Z,-0.10
2019-05-06T00:20:45.002Z,-0.10
2019-05-06T00:23:38.859Z,-0.10
2019-05-06T00:26:44.827Z,-0.30
2019-05-06T00:29:34.938Z,-0.30
2019-05-06T00:32:24.460Z,-0.40
2019-05-06T00:35:15.470Z,-0.40
2019-05-06T00:38:07.035Z,-0.50
2019-05-06T00:40:58.662Z,-0.40
2019-05-06T00:43:48.435Z,-0.50
2019-05-06T00:46:36.748Z,-0.60
2019-05-06T00:49:24.609Z,-0.50
2019-05-06T00:52:16.128Z,-0.70
2019-05-06T00:55:04.227Z,-0.70
2019-05-06T00:57:55.421Z,-0.60
2019-05-06T01:00:44.256Z,-0.60
2019-05-06T01:03:34.523Z,-0.50
2019-05-06T01:06:24.543Z,-0.50
2019-05-06T01:09:16.378Z,-0.30
2019-05-06T01:12:07.048Z,-0.30
2019-05-06T01:14:56.244Z,-0.50
2019-05-06T01:17:44.431Z,-0.70
2019-05-06T01:20:33.960Z,-0.50
2019-05-06T01:23:23.456Z,-0.30
2019-05-06T01:26:15.239Z,-0.50
2019-05-06T01:29:04.724Z,-0.50
2019-05-06T01:31:54.404Z,-0.40
2019-05-06T01:34:44.527Z,-0.50
2019-05-06T01:37:32.223Z,-0.20
2019-05-06T01:40:35.864Z,-0.20
2019-05-06T01:43:27.780Z,-0.40
2019-05-06T01:46:16.261Z,-0.40
2019-05-06T01:49:04.436Z,-0.50
2019-05-06T01:51:54.410Z,-0.40
2019-05-06T01:54:43.461Z,-0.50
2019-05-06T01:57:34.890Z,-0.40
2019-05-06T02:00:23.650Z,-0.40
2019-05-06T02:03:14.838Z,-0.30
2019-05-06T02:06:04.739Z,-0.30
2019-05-06T02:08:54.012Z,-0.40
2019-05-06T02:11:44.180Z,-0.30
2019-05-06T02:14:36.033Z,-0.40
2019-05-06T02:17:23.979Z,-0.40
2019-05-06T02:20:14.946Z,-0.50
2019-05-06T02:23:26.914Z,-0.50
2019-05-06T02:26:14.762Z,-0.50
2019-05-06T02:29:04.371Z,-0.50
2019-05-06T02:32:24.395Z,-0.50
2019-05-06T02:35:17.327Z,-0.60
2019-05-06T02:38:23.355Z,-0.60
2019-05-06T02:41:13.415Z,-0.60
2019-05-06T02:44:03.679Z,-0.50
2019-05-06T02:46:58.258Z,-0.50
2019-05-06T02:49:53.221Z,-0.50
2019-05-06T02:52:44.094Z,-0.50
2019-05-06T02:55:35.528Z,-0.50
2019-05-06T02:58:23.678Z,-0.40
2019-05-06T03:01:13.714Z,-0.40
2019-05-06T03:04:04.407Z,-0.30
2019-05-06T03:06:53.273Z,-0.20
2019-05-06T03:09:44.324Z,-0.20
2019-05-06T03:12:36.950Z,-0.10
2019-05-06T03:15:27.625Z,0.00
2019-05-06T03:18:16.225Z,0.10
2019-05-06T03:21:24.756Z,0.00
2019-05-06T03:24:46.340Z,0.00
2019-05-06T03:27:34.332Z,0.10
2019-05-06T03:30:25.440Z,0.20
2019-05-06T03:33:37.850Z,0.20
2019-05-06T03:36:15.189Z,0.30
2019-05-06T03:38:53.594Z,0.40
2019-05-06T03:41:43.897Z,0.50
2019-05-06T03:44:33.038Z,0.50
2019-05-06T03:47:34.893Z,0.50
2019-05-06T03:50:24.101Z,0.50
2019-05-06T03:53:14.020Z,0.50
2019-05-06T03:56:03.533Z,0.50
2019-05-06T03:59:02.948Z,0.70
2019-05-06T04:01:53.442Z,0.80
2019-05-06T04:04:43.990Z,0.60
2019-05-06T04:07:34.015Z,0.70
2019-05-06T04:10:22.847Z,0.70
2019-05-06T04:13:13.449Z,0.70
2019-05-06T04:16:23.063Z,0.90
2019-05-06T04:19:23.689Z,1.00
2019-05-06T04:22:34.379Z,1.00
2019-05-06T04:26:00.022Z,1.00
2019-05-06T04:28:49.630Z,1.10
2019-05-06T04:31:37.458Z,1.10
2019-05-06T04:34:24.849Z,1.20
2019-05-06T04:37:14.495Z,1.40
2019-05-06T04:40:04.598Z,1.30
2019-05-06T04:42:52.919Z,1.30
2019-05-06T04:45:43.350Z,1.30
2019-05-06T04:48:33.523Z,1.20
2019-05-06T04:51:24.375Z,1.40
2019-05-06T04:54:15.685Z,1.50
2019-05-06T04:57:06.122Z,1.40
2019-05-06T04:59:56.262Z,1.30
2019-05-06T05:03:35.873Z,1.30
2019-05-06T05:06:38.659Z,1.50
2019-05-06T05:09:39.034Z,1.70
2019-05-06T05:12:56.446Z,1.70
2019-05-06T05:15:57.276Z,2.00
2019-05-06T05:18:49.137Z,2.10
2019-05-06T05:21:37.042Z,2.10
2019-05-06T05:24:27.454Z,2.20
2019-05-06T05:27:15.716Z,2.20
2019-05-06T05:30:03.622Z,2.10
2019-05-06T05:32:52.060Z,2.10
2019-05-06T05:35:40.083Z,2.20
2019-05-06T05:38:28.649Z,2.30
2019-05-06T05:41:16.556Z,2.40
2019-05-06T05:44:09.662Z,2.40
2019-05-06T05:47:00.544Z,2.80
2019-05-06T05:50:06.198Z,2.80
2019-05-06T05:52:54.245Z,2.90
2019-05-06T05:55:49.405Z,3.00
2019-05-06T05:58:37.994Z,2.90
2019-05-06T06:01:26.253Z,3.10
2019-05-06T06:04:14.187Z,3.30
2019-05-06T06:07:02.658Z,3.60
2019-05-06T06:10:09.857Z,3.60
2019-05-06T06:12:59.163Z,3.70
2019-05-06T06:16:14.284Z,3.80
2019-05-06T06:19:22.665Z,3.90
2019-05-06T06:22:16.615Z,3.90
2019-05-06T06:25:06.809Z,3.90
2019-05-06T06:27:56.271Z,4.30
2019-05-06T06:30:52.067Z,4.50
2019-05-06T06:33:42.829Z,4.60
2019-05-06T06:36:55.825Z,4.50
2019-05-06T06:39:45.453Z,4.40
2019-05-06T06:42:33.650Z,4.50
2019-05-06T06:45:23.038Z,4.30
2019-05-06T06:48:12.350Z,4.40
2019-05-06T06:51:03.300Z,4.60
2019-05-06T06:53:49.749Z,4.60
2019-05-06T06:57:08.345Z,5.00
2019-05-06T07:00:17.913Z,5.00
2019-05-06T07:03:09.669Z,5.20
2019-05-06T07:06:19.760Z,5.30
2019-05-06T07:09:08.119Z,5.20
2019-05-06T07:11:58.619Z,5.20
2019-05-06T07:15:02.295Z,5.10
2019-05-06T07:17:49.880Z,5.00
2019-05-06T07:20:57.182Z,5.30
2019-05-06T07:23:45.173Z,5.70
2019-05-06T07:26:52.393Z,6.20
2019-05-06T07:29:39.887Z,6.70
2019-05-06T07:32:28.007Z,6.90
2019-05-06T07:35:15.958Z,7.30
2019-05-06T07:38:04.022Z,7.30
2019-05-06T07:40:55.612Z,7.40
2019-05-06T07:43:59.225Z,7.30
2019-05-06T07:46:58.279Z,7.80
2019-05-06T07:49:45.957Z,8.00
2019-05-06T07:52:33.607Z,8.60
2019-05-06T07:55:22.973Z,8.40
2019-05-06T07:58:13.574Z,8.10
2019-05-06T08:01:02.628Z,8.80
2019-05-06T08:03:53.246Z,9.30
2019-05-06T08:06:44.366Z,8.90
2019-05-06T08:09:32.693Z,9.40
2019-05-06T08:12:22.244Z,9.00
2019-05-06T08:15:12.674Z,8.50
2019-05-06T08:18:00.375Z,8.90
2019-05-06T08:20:48.299Z,9.40
2019-05-06T08:23:43.939Z,10.40
2019-05-06T08:26:32.331Z,10.70
2019-05-06T08:29:27.382Z,10.40
2019-05-06T08:32:15.200Z,9.80
2019-05-06T08:35:03.466Z,9.80
2019-05-06T08:37:53.134Z,9.10
2019-05-06T08:40:43.135Z,9.60
2019-05-06T08:43:32.650Z,8.90
2019-05-06T08:46:23.212Z,8.70
2019-05-06T08:49:12.262Z,9.20
2019-05-06T08:52:12.925Z,9.70
2019-05-06T08:55:02.266Z,10.00
2019-05-06T08:57:49.408Z,9.40
2019-05-06T09:00:47.418Z,10.00
2019-05-06T09:03:35.482Z,10.70
2019-05-06T09:06:29.306Z,9.60
2019-05-06T09:09:13.130Z,9.60
2019-05-06T09:12:02.650Z,10.00
2019-05-06T09:14:50.534Z,10.40
2019-05-06T09:17:38.068Z,9.60
2019-05-06T09:20:32.594Z,9.00
2019-05-06T09:23:22.699Z,9.40
2019-05-06T09:26:13.204Z,9.10
2019-05-06T09:29:15.605Z,9.20
2019-05-06T09:32:08.060Z,8.80
2019-05-06T09:35:09.185Z,8.60
2019-05-06T09:37:59.572Z,8.40
2019-05-06T09:40:47.883Z,7.80
2019-05-06T09:43:36.144Z,7.40
2019-05-06T09:46:53.128Z,7.20
2019-05-06T09:49:43.030Z,7.10
2019-05-06T09:52:33.340Z,6.60
2019-05-06T09:55:29.824Z,6.30
2019-05-06T09:58:18.082Z,6.40
2019-05-06T10:01:07.877Z,6.50
2019-05-06T10:03:59.434Z,6.40
2019-05-06T10:06:56.191Z,6.60
2019-05-06T10:09:36.844Z,6.70
2019-05-06T10:12:24.823Z,6.80
2019-05-06T10:15:14.071Z,7.00
2019-05-06T10:18:07.957Z,7.00
2019-05-06T10:20:56.287Z,6.80
2019-05-06T10:23:44.492Z,7.00
2019-05-06T10:26:35.620Z,7.10
2019-05-06T10:29:45.534Z,7.00
2019-05-06T10:32:38.529Z,7.40
2019-05-06T10:35:29.470Z,7.80
2019-05-06T10:38:42.031Z,8.10
2019-05-06T10:41:33.329Z,8.40
2019-05-06T10:44:42.759Z,8.60
2019-05-06T10:47:30.353Z,8.60
2019-05-06T10:50:18.050Z,8.50
2019-05-06T10:53:22.989Z,8.50
2019-05-06T10:56:28.905Z,8.90
2019-05-06T10:59:17.775Z,9.10
2019-05-06T11:02:56.186Z,9.30
2019-05-06T11:05:44.355Z,9.60
2019-05-06T11:08:32.600Z,9.80
2019-05-06T11:11:31.550Z,9.30
2019-05-06T11:14:12.576Z,9.10
2019-05-06T11:17:00.344Z,9.60
2019-05-06T11:19:47.975Z,10.10
2019-05-06T11:22:35.792Z,9.90
2019-05-06T11:25:23.933Z,10.00
2019-05-06T11:28:29.541Z,10.10
2019-05-06T11:31:38.981Z,10.90
2019-05-06T11:34:47.896Z,11.50
2019-05-06T11:37:58.266Z,11.50
2019-05-06T11:40:46.560Z,11.40
2019-05-06T11:43:34.100Z,12.50
2019-05-06T11:46:22.871Z,13.30
2019-05-06T11:49:13.125Z,13.60
2019-05-06T11:52:02.570Z,14.00
2019-05-06T11:55:31.256Z,13.70
2019-05-06T11:58:28.356Z,14.60
2019-05-06T12:01:23.011Z,14.50
2019-05-06T12:04:15.091Z,14.10
2019-05-06T12:07:11.444Z,13.80
2019-05-06T12:09:53.894Z,13.60
2019-05-06T12:12:43.193Z,12.60
2019-05-06T12:19:39.856Z,12.70
2019-05-06T12:26:34.047Z,11.30
2019-05-06T12:29:13.672Z,11.00
2019-05-06T12:32:22.434Z,10.70
2019-05-06T12:35:09.828Z,10.80
2019-05-06T12:41:36.677Z,10.60
2019-05-06T12:44:26.069Z,10.20
2019-05-06T12:51:19.447Z,9.50
2019-05-06T12:54:07.355Z,9.10
2019-05-06T12:56:57.418Z,8.80
2019-05-06T12:59:49.970Z,8.60
2019-05-06T13:02:37.687Z,8.50
2019-05-06T13:05:28.217Z,8.50
2019-05-06T13:08:52.664Z,8.60
2019-05-06T13:11:47.186Z,8.60
2019-05-06T13:18:24.882Z,8.70
2019-05-06T13:22:07.600Z,9.00
2019-05-06T13:25:18.169Z,9.40
2019-05-06T13:28:30.239Z,9.60
2019-05-06T13:31:53.057Z,9.80
2019-05-06T13:34:46.803Z,9.80
2019-05-06T13:37:35.021Z,10.20
2019-05-06T13:40:24.137Z,10.70
2019-05-06T13:43:35.822Z,10.60
2019-05-06T13:46:28.961Z,10.70
2019-05-06T13:49:38.912Z,11.00
2019-05-06T13:52:30.960Z,11.30
2019-05-06T13:55:18.534Z,11.70
2019-05-06T13:58:12.386Z,11.60
2019-05-06T14:01:02.945Z,12.00
2019-05-06T14:03:52.392Z,12.70
2019-05-06T14:06:43.327Z,13.30
2019-05-06T14:09:37.288Z,13.50
2019-05-06T14:12:22.044Z,13.70
2019-05-06T14:15:12.446Z,14.80
2019-05-06T14:18:02.423Z,16.40
2019-05-06T14:20:49.436Z,17.90
2019-05-06T14:23:37.589Z,19.20
2019-05-06T14:26:37.837Z,17.40
2019-05-06T14:29:36.230Z,16.70
2019-05-06T14:32:24.395Z,16.40
2019-05-06T14:35:14.838Z,16.10
2019-05-06T14:38:03.531Z,14.80
2019-05-06T14:41:08.371Z,13.90
2019-05-06T14:44:00.048Z,13.60
2019-05-06T14:47:25.230Z,12.80
2019-05-06T14:50:14.687Z,11.90
2019-05-06T14:53:02.917Z,12.10
2019-05-06T14:55:51.775Z,12.00
2019-05-06T14:58:42.731Z,11.50
2019-05-06T15:01:29.499Z,10.80
2019-05-06T15:04:17.412Z,10.40
2019-05-06T15:07:05.558Z,10.40
2019-05-06T15:10:14.654Z,10.80
2019-05-06T15:12:43.588Z,10.90
2019-05-06T15:15:32.401Z,10.80
2019-05-06T15:18:22.340Z,11.00
2019-05-06T15:21:30.236Z,10.90
2019-05-06T15:24:02.751Z,10.80
2019-05-06T15:26:52.137Z,11.30
2019-05-06T15:29:41.572Z,11.40
2019-05-06T15:32:35.292Z,11.30
2019-05-06T15:35:48.518Z,11.00
2019-05-06T15:38:38.695Z,11.00
2019-05-06T15:41:26.418Z,11.30
2019-05-06T15:44:13.848Z,11.30
2019-05-06T15:47:03.259Z,12.10
2019-05-06T15:49:52.657Z,13.40
2019-05-06T15:52:43.331Z,13.90
2019-05-06T15:55:32.146Z,13.10
2019-05-06T15:58:19.248Z,12.30
2019-05-06T16:01:08.623Z,11.20
2019-05-06T16:03:56.393Z,11.00
2019-05-06T16:06:44.738Z,11.10
2019-05-06T16:09:33.157Z,10.90
2019-05-06T16:12:22.082Z,10.60
2019-05-06T16:15:15.366Z,10.10
2019-05-06T16:18:04.405Z,9.70
2019-05-06T16:20:52.457Z,9.70
2019-05-06T16:23:44.969Z,9.60
2019-05-06T16:26:35.297Z,9.70
2019-05-06T16:29:38.254Z,9.60
2019-05-06T16:32:26.263Z,9.60
2019-05-06T16:35:14.482Z,9.60
2019-05-06T16:38:02.418Z,9.70
2019-05-06T16:40:49.791Z,9.90
2019-05-06T16:43:42.729Z,10.10
2019-05-06T16:46:33.608Z,10.10
2019-05-06T16:49:20.159Z,10.10
2019-05-06T16:52:13.005Z,10.10
2019-05-06T16:55:03.057Z,10.00
2019-05-06T16:58:10.427Z,9.90
2019-05-06T17:00:58.105Z,9.90
2019-05-06T17:04:08.295Z,9.90
2019-05-06T17:07:03.069Z,9.90
2019-05-06T17:09:52.492Z,10.00
2019-05-06T17:12:45.815Z,9.90
2019-05-06T17:15:33.760Z,10.10
2019-05-06T17:18:22.709Z,10.10
2019-05-06T17:21:12.960Z,10.20
2019-05-06T17:24:02.156Z,10.00
2019-05-06T17:26:49.109Z,10.00
2019-05-06T17:29:59.210Z,9.90
2019-05-06T17:32:52.506Z,9.70
2019-05-06T17:35:42.787Z,9.50
2019-05-06T17:38:35.278Z,9.40
2019-05-06T17:41:26.596Z,9.50
2019-05-06T17:44:13.151Z,9.60
2019-05-06T17:47:14.142Z,9.50
2019-05-06T17:50:02.826Z,9.60
2019-05-06T17:52:52.522Z,9.50
2019-05-06T17:55:40.672Z,9.50
2019-05-06T17:58:28.747Z,9.50
2019-05-06T18:01:23.239Z,9.40
2019-05-06T18:04:13.777Z,9.30
2019-05-06T18:07:01.608Z,9.20
2019-05-06T18:09:49.510Z,9.00
2019-05-06T18:16:00.541Z,8.90
2019-05-06T18:18:48.403Z,8.80
2019-05-06T18:21:36.222Z,8.70
2019-05-06T18:24:24.280Z,8.70
2019-05-06T18:27:15.839Z,8.60
2019-05-06T18:30:13.422Z,8.60
2019-05-06T18:32:53.996Z,8.50
2019-05-06T18:35:43.574Z,8.50
2019-05-06T18:38:33.526Z,8.40
2019-05-06T18:41:20.613Z,8.30
2019-05-06T18:44:08.799Z,8.30
2019-05-06T18:46:59.681Z,8.20
2019-05-06T18:49:48.925Z,8.10
2019-05-06T18:52:36.986Z,8.10
2019-05-06T18:55:24.767Z,8.00
2019-05-06T18:58:12.966Z,8.00
2019-05-06T19:01:00.612Z,7.90
2019-05-06T19:04:03.514Z,7.80
2019-05-06T19:07:08.716Z,7.70
2019-05-06T19:09:47.063Z,7.70
2019-05-06T19:12:40.582Z,7.70
2019-05-06T19:15:24.167Z,7.60
2019-05-06T19:18:12.944Z,7.60
2019-05-06T19:21:02.637Z,7.50
2019-05-06T19:23:51.913Z,7.50
2019-05-06T19:26:39.243Z,7.50
2019-05-06T19:29:27.026Z,7.50
2019-05-06T19:32:14.935Z,7.40
2019-05-06T19:35:02.980Z,7.40
2019-05-06T19:37:50.601Z,7.40
2019-05-06T19:40:38.722Z,7.30
2019-05-06T19:43:26.286Z,7.30
2019-05-06T19:46:14.011Z,7.40
2019-05-06T19:49:02.779Z,7.40
2019-05-06T19:51:52.266Z,7.30
2019-05-06T19:54:42.353Z,7.20
2019-05-06T19:57:29.689Z,7.20
2019-05-06T20:00:19.465Z,7.20
2019-05-06T20:03:15.632Z,7.10
2019-05-06T20:06:34.107Z,7.00
2019-05-06T20:09:46.714Z,7.00
2019-05-06T20:12:58.311Z,6.90
2019-05-06T20:15:38.307Z,6.80
2019-05-06T20:18:26.731Z,6.80
2019-05-06T20:21:23.013Z,6.60
2019-05-06T20:24:09.630Z,6.50
2019-05-06T20:26:57.801Z,6.50
2019-05-06T20:29:45.476Z,6.40
2019-05-06T20:32:34.087Z,6.40
2019-05-06T20:35:22.340Z,6.30
2019-05-06T20:38:12.384Z,6.20
2019-05-06T20:41:04.756Z,6.10
2019-05-06T20:43:52.786Z,6.10
2019-05-06T20:46:43.362Z,6.00
2019-05-06T20:49:33.140Z,6.00
2019-05-06T20:52:22.917Z,6.00
2019-05-06T20:55:15.870Z,5.90
2019-05-06T20:58:03.462Z,5.90
2019-05-06T21:00:52.200Z,5.90
2019-05-06T21:03:42.245Z,5.80
2019-05-06T21:06:32.243Z,5.90
2019-05-06T21:09:19.301Z,6.10
2019-05-06T21:12:16.465Z,6.20
2019-05-06T21:15:04.760Z,6.10
2019-05-06T21:17:52.729Z,6.10
2019-05-06T21:20:43.362Z,6.10
2019-05-06T21:23:32.104Z,6.10
2019-05-06T21:26:21.988Z,6.10
2019-05-06T21:29:09.367Z,6.20
2019-05-06T21:31:57.617Z,6.00
2019-05-06T21:34:46.029Z,6.00
2019-05-06T21:37:37.171Z,6.00
2019-05-06T21:40:26.175Z,5.90
2019-05-06T21:43:15.730Z,5.90
2019-05-06T21:46:02.909Z,5.80
2019-05-06T21:48:52.947Z,5.70
2019-05-06T21:51:42.541Z,5.70
2019-05-06T21:54:32.899Z,5.80
2019-05-06T21:57:21.815Z,5.70
2019-05-06T22:00:13.769Z,5.70
2019-05-06T22:03:02.416Z,5.70
2019-05-06T22:05:54.367Z,5.70
2019-05-06T22:08:39.611Z,5.60
2019-05-06T22:11:31.902Z,5.60
2019-05-06T22:14:19.432Z,5.60
2019-05-06T22:17:07.913Z,5.60
2019-05-06T22:19:57.460Z,5.50
2019-05-06T22:22:45.282Z,5.60
2019-05-06T22:25:33.154Z,5.50
2019-05-06T22:28:22.712Z,5.50
2019-05-06T22:31:10.735Z,5.60
2019-05-06T22:33:59.042Z,5.40
2019-05-06T22:36:47.046Z,5.30
2019-05-06T22:39:35.352Z,5.20
2019-05-06T22:42:24.981Z,5.30
2019-05-06T22:45:13.282Z,5.30
2019-05-06T22:48:04.576Z,5.30
2019-05-06T22:50:53.103Z,5.30
2019-05-06T22:53:42.541Z,5.10
2019-05-06T22:56:32.530Z,5.10
2019-05-06T22:59:19.956Z,5.00
2019-05-06T23:02:23.959Z,5.00
2019-05-06T23:05:14.233Z,5.00
2019-05-06T23:08:02.778Z,5.00
2019-05-06T23:10:52.843Z,5.00
2019-05-06T23:13:44.054Z,4.90
2019-05-06T23:16:34.886Z,4.90
2019-05-06T23:19:24.485Z,5.00
2019-05-06T23:22:13.913Z,5.00
2019-05-06T23:25:02.460Z,5.10
2019-05-06T23:27:50.067Z,5.00
2019-05-06T23:30:37.835Z,4.90
2019-05-06T23:33:32.522Z,4.90
2019-05-06T23:36:22.790Z,4.80
2019-05-06T23:39:58.834Z,4.90
2019-05-06T23:43:25.725Z,4.90
2019-05-06T23:46:49.769Z,4.70
2019-05-06T23:50:14.034Z,4.80
2019-05-06T23:53:37.317Z,4.80
2019-05-06T23:56:44.969Z,4.70
2019-05-06T23:59:33.048Z,4.70
